Flight Track Log - Related Links

Times and Time Zones

All times are in EDT time to prevent confusion due to time zone crossing. See the UAL270 flight status page for this flight to view local times or setup timezone preferences in your user account.

Time Position Orientation Groundspeed Altitude Reporting Facility
EDT Latitude Longitude Course Direction KTS MPH feet Rate Location/Type
Sat 02:36:55 PM 29.9931 -95.3664 335° Northwest 186 214 1,000  Level Houston Center
Sat 02:38:10 PM 30.0508 -95.3886 342° North 211 243 1,900 1,270 Climbing Houston Center
Sat 02:39:00 PM 30.2776 -95.5047 332° Northwest  Level FlightAware Approximate
Sat 02:39:12 PM 30.1144 -95.3978 353° North 225 259 3,900  Level Houston Center
Sat 02:40:00 PM 30.3758 -95.5643 334° Northwest  Level FlightAware Approximate
Sat 02:40:14 PM 30.1867 -95.4089 352° North 252 290 4,400  Level Houston Center
Sat 02:41:00 PM 30.4758 -95.6199 334° Northwest  Level FlightAware Approximate
Sat 02:41:16 PM 30.2558 -95.4378 340° North 266 306 6,900  Level Houston Center
Sat 02:42:00 PM 30.5765 -95.6735 335° Northwest  Level FlightAware Approximate
Sat 02:42:18 PM 30.3172 -95.4875 325° Northwest 271 312 9,600  Level Houston Center
Sat 02:43:19 PM 30.3989 -95.5481 327° Northwest 286 329 11,300 1,854 Climbing Houston Center
Sat 02:44:21 PM 30.4781 -95.6078 327° Northwest 333 383 13,400 1,935 Climbing Houston Center
Sat 02:45:23 PM 30.5581 -95.6658 328° Northwest 341 392 15,300 1,790 Climbing Houston Center
Sat 02:46:25 PM 30.6481 -95.7117 336° Northwest 351 404 17,100 1,742 Climbing Houston Center
Sat 02:47:27 PM 30.7525 -95.7686 335° Northwest 368 423 18,900 1,694 Climbing Houston Center
Sat 02:48:29 PM 30.8492 -95.8194 336° Northwest 376 433 20,600 1,415 Climbing Houston Center
Sat 02:49:30 PM 30.9475 -95.8728 335° Northwest 386 444 21,800 1,366 Climbing Houston Center
Sat 02:50:32 PM 31.0478 -95.9264 335° Northwest 394 453 23,400 1,403 Climbing Houston Center
Sat 02:51:34 PM 31.1494 -95.9772 337° Northwest 394 453 24,700 1,016 Climbing Houston Center
Sat 02:52:36 PM 31.2558 -96.0189 341° North 399 459 25,500 871 Climbing Houston Center
Sat 02:53:38 PM 31.3667 -96.0608 342° North 412 474 26,500 1,016 Climbing Houston Center
Sat 02:54:40 PM 31.4903 -96.1086 342° North 416 479 27,600 919 Climbing Houston Center
Sat 02:55:42 PM 31.6033 -96.1525 342° North 423 487 28,400 764 Climbing Houston Center
Sat 02:56:30 PM 31.7086 -96.1947 341° North 425 489 29,000 778 Climbing Fort Worth Center
Sat 02:57:30 PM 31.8281 -96.2422 341° North 437 503 29,800 1,050 Climbing Fort Worth Center
Sat 02:58:30 PM 31.9286 -96.2825 341° North 431 496 31,100 1,350 Climbing Fort Worth Center
Sat 02:59:30 PM 32.0417 -96.3275 341° North 426 490 32,500 1,050 Climbing Fort Worth Center
Sat 03:00:30 PM 32.1528 -96.3778 339° North 426 490 33,200 700 Climbing Fort Worth Center
Sat 03:01:30 PM 32.2514 -96.4553 326° Northwest 419 482 33,900 400 Climbing Fort Worth Center
Sat 03:02:30 PM 32.3356 -96.5503 316° Northwest 419 482 34,000 50 Climbing Fort Worth Center
Sat 03:03:30 PM 32.4219 -96.6456 317° Northwest 419 482 34,000  Level Fort Worth Center
Sat 03:04:30 PM 32.5058 -96.7433 316° Northwest 419 482 34,000  Level Fort Worth Center
Sat 03:05:30 PM 32.5942 -96.8414 317° Northwest 424 488 34,000  Level Fort Worth Center
Sat 03:06:30 PM 32.6781 -96.9394 315° West 424 488 34,000  Level Fort Worth Center
Sat 03:07:30 PM 32.7639 -97.0353 317° Northwest 429 494 34,000  Level Fort Worth Center
Sat 03:08:30 PM 32.8603 -97.1439 317° Northwest 429 494 34,000  Level Fort Worth Center
Sat 03:09:30 PM 32.9356 -97.2353 314° West 429 494 34,000  Level Fort Worth Center
Sat 03:10:30 PM 33.0294 -97.3564 313° West 441 507 34,000  Level Fort Worth Center
Sat 03:11:30 PM 33.1089 -97.4581 313° West 446 513 34,000  Level Fort Worth Center
Sat 03:12:30 PM 33.1903 -97.5600 314° West 433 498 34,000 -50 Level Fort Worth Center
Sat 03:13:30 PM 33.2672 -97.6594 313° West 422 486 33,900  Descending Fort Worth Center
Sat 03:14:30 PM 33.3483 -97.7617 314° West 422 486 34,000 50 Climbing Fort Worth Center
Sat 03:15:30 PM 33.4294 -97.8664 313° West 422 486 34,000  Level Fort Worth Center
Sat 03:16:30 PM 33.5083 -97.9689 313° West 422 486 34,000  Level Fort Worth Center
Sat 03:17:30 PM 33.5914 -98.0644 316° Northwest 422 486 34,000  Level Fort Worth Center
Sat 03:18:30 PM 33.6892 -98.1400 327° Northwest 417 480 34,000  Level Fort Worth Center
Sat 03:19:30 PM 33.7867 -98.2183 326° Northwest 417 480 34,000  Level Fort Worth Center
Sat 03:20:30 PM 33.8822 -98.2942 327° Northwest 412 474 34,000  Level Fort Worth Center
Sat 03:21:30 PM 33.9797 -98.3728 326° Northwest 418 481 34,000  Level Fort Worth Center
Sat 03:22:30 PM 34.0750 -98.4492 326° Northwest 418 481 34,000  Level Fort Worth Center
Sat 03:23:30 PM 34.1683 -98.5256 326° Northwest 418 481 34,000 200 Level Fort Worth Center
Sat 03:24:30 PM 34.2656 -98.6072 325° Northwest 418 481 34,400 950 Climbing Fort Worth Center
Sat 03:25:30 PM 34.3589 -98.6814 327° Northwest 413 475 35,900 800 Climbing Fort Worth Center
Sat 03:26:30 PM 34.4561 -98.7558 328° Northwest 408 470 36,000 50 Climbing Fort Worth Center
Sat 03:27:30 PM 34.5514 -98.8331 326° Northwest 408 470 36,000  Level Fort Worth Center
Sat 03:28:30 PM 34.6464 -98.9028 329° Northwest 414 476 36,000  Level Fort Worth Center
Sat 03:29:30 PM 34.7436 -98.9803 327° Northwest 409 471 36,000  Level Fort Worth Center
Sat 03:30:30 PM 34.8364 -99.0606 325° Northwest 409 471 36,000  Level Fort Worth Center
Sat 03:31:30 PM 34.9333 -99.1333 328° Northwest 414 476 36,000  Level Fort Worth Center
Sat 03:32:30 PM 35.0303 -99.2139 326° Northwest 414 476 36,000  Level Fort Worth Center
Sat 03:33:30 PM 35.1231 -99.2919 325° Northwest 414 476 36,000  Level Fort Worth Center
Sat 03:34:30 PM 35.2200 -99.3678 327° Northwest 414 476 36,000  Level Fort Worth Center
Sat 03:35:30 PM 35.3186 -99.4489 326° Northwest 420 483 36,000  Level Fort Worth Center
Sat 03:36:30 PM 35.4050 -99.5197 326° Northwest 420 483 36,000  Level Fort Worth Center
Sat 03:37:30 PM 35.5017 -99.6014 325° Northwest 420 483 36,000  Level Fort Worth Center
Sat 03:39:06 PM 35.6511 -99.7208 327° Northwest 413 475 36,000  Level Kansas City Center
Sat 03:40:07 PM 35.7481 -99.8025 326° Northwest 416 479 36,000  Level Kansas City Center
Sat 03:41:09 PM 35.8461 -99.8819 327° Northwest 418 481 36,000  Level Kansas City Center
Sat 03:42:11 PM 35.9444 -99.9644 326° Northwest 421 484 36,000  Level Kansas City Center
Sat 03:43:12 PM 36.0606 -100.0619 326° Northwest 420 483 36,000  Level Kansas City Center
Sat 03:44:14 PM 36.1589 -100.1436 326° Northwest 421 484 36,000  Level Kansas City Center
Sat 03:45:16 PM 36.2558 -100.2247 326° Northwest 419 482 36,000  Level Kansas City Center
Sat 03:46:17 PM 36.3519 -100.3061 326° Northwest 417 480 36,000  Level Kansas City Center
Sat 03:47:19 PM 36.4483 -100.3872 326° Northwest 417 480 36,000  Level Kansas City Center
Sat 03:48:20 PM 36.5461 -100.4706 326° Northwest 414 476 36,000  Level Kansas City Center
Sat 03:49:22 PM 36.6506 -100.5606 325° Northwest 409 471 36,000  Level Kansas City Center
Sat 03:50:24 PM 36.7406 -100.6367 326° Northwest 409 471 36,000  Level Kansas City Center
Sat 03:51:25 PM 36.8283 -100.7133 325° Northwest 403 464 36,000  Level Kansas City Center
Sat 03:52:27 PM 36.9319 -100.8019 326° Northwest 403 464 36,000  Level Kansas City Center
Sat 03:53:29 PM 37.0206 -100.8775 326° Northwest 402 463 36,000  Level Kansas City Center
Sat 03:54:32 PM 37.1228 -100.9669 325° Northwest 401 461 36,000  Level Kansas City Center
Sat 03:55:32 PM 37.2119 -101.0439 326° Northwest 403 464 36,000  Level Kansas City Center
Sat 03:56:34 PM 37.3003 -101.1225 325° Northwest 404 465 36,000  Level Kansas City Center
Sat 03:57:35 PM 37.4050 -101.2139 325° Northwest 406 467 36,000  Level Kansas City Center
Sat 03:58:37 PM 37.4933 -101.2906 325° Northwest 401 461 36,000  Level Kansas City Center
Sat 03:59:39 PM 37.5969 -101.3822 325° Northwest 402 463 36,000  Level Kansas City Center
Sat 04:00:40 PM 37.6856 -101.4600 325° Northwest 404 465 36,000  Level Kansas City Center
Sat 04:01:42 PM 37.7742 -101.5383 325° Northwest 405 466 36,000  Level Kansas City Center
Sat 04:02:43 PM 37.8772 -101.6292 325° Northwest 403 464 36,000  Level Kansas City Center
Sat 04:03:45 PM 37.9650 -101.7078 325° Northwest 403 464 36,000  Level Kansas City Center
Sat 04:04:38 PM 38.0536 -101.7856 325° Northwest 405 466 36,000  Level Denver Center
Sat 04:05:40 PM 38.1414 -101.8647 325° Northwest 403 464 36,000  Level Denver Center
Sat 04:06:42 PM 38.2439 -101.9553 325° Northwest 403 464 36,000  Level Denver Center
Sat 04:07:43 PM 38.3300 -102.0353 324° Northwest 401 461 36,000  Level Denver Center
Sat 04:08:45 PM 38.4181 -102.1139 325° Northwest 403 464 36,000  Level Denver Center
Sat 04:09:59 PM 38.5203 -102.2053 325° Northwest 402 463 36,000  Level Denver Center
Sat 04:11:01 PM 38.6381 -102.3122 325° Northwest 406 467 36,000  Level Denver Center
Sat 04:12:03 PM 38.7253 -102.3928 324° Northwest 404 465 36,000  Level Denver Center
Sat 04:13:04 PM 38.8133 -102.4733 325° Northwest 405 466 36,000  Level Denver Center
Sat 04:14:06 PM 38.9003 -102.5544 324° Northwest 405 466 36,000  Level Denver Center
Sat 04:15:08 PM 38.9886 -102.6350 325° Northwest 407 468 36,000  Level Denver Center
Sat 04:16:10 PM 39.1094 -102.7481 324° Northwest 407 468 36,000  Level Denver Center
Sat 04:17:12 PM 39.2017 -102.8331 324° Northwest 406 467 36,000  Level Denver Center
Sat 04:18:13 PM 39.2933 -102.9169 325° Northwest 405 466 36,000  Level Denver Center
Sat 04:19:15 PM 39.3847 -103.0028 324° Northwest 407 468 36,000  Level Denver Center
Sat 04:20:17 PM 39.4764 -103.0894 324° Northwest 409 471 36,000  Level Denver Center
Sat 04:21:19 PM 39.5681 -103.1747 324° Northwest 409 471 36,000  Level Denver Center
Sat 04:22:21 PM 39.6586 -103.2608 324° Northwest 405 466 36,000  Level Denver Center
Sat 04:23:23 PM 39.7647 -103.3608 324° Northwest 397 457 36,000  Level Denver Center
Sat 04:24:25 PM 39.8508 -103.4436 324° Northwest 388 447 36,000  Level Denver Center
Sat 04:25:27 PM 39.9397 -103.5292 324° Northwest 396 456 36,000  Level Denver Center
Sat 04:26:28 PM 40.0286 -103.6133 324° Northwest 398 458 36,000  Level Denver Center
Sat 04:27:30 PM 40.1000 -103.6819 324° Northwest 399 459 36,000  Level Denver Center
Sat 04:28:32 PM 40.2253 -103.8028 324° Northwest 404 465 36,000  Level Denver Center
Sat 04:29:34 PM 40.3144 -103.8881 324° Northwest 400 460 36,000  Level Denver Center
Sat 04:30:36 PM 40.4064 -103.9764 324° Northwest 410 472 36,000  Level Denver Center
Sat 04:31:38 PM 40.4961 -104.0650 323° Northwest 406 467 36,000  Level Denver Center
Sat 04:32:40 PM 40.5881 -104.1542 324° Northwest 412 474 36,000  Level Denver Center
Sat 04:33:42 PM 40.6792 -104.2433 323° Northwest 412 474 36,000  Level Denver Center
Sat 04:34:44 PM 40.7869 -104.3519 323° Northwest 409 471 36,000  Level Denver Center
Sat 04:35:46 PM 40.8789 -104.4425 323° Northwest 414 476 36,000  Level Denver Center
Sat 04:36:48 PM 40.9708 -104.5331 323° Northwest 414 476 36,000  Level Denver Center
Sat 04:37:50 PM 41.0711 -104.6319 323° Northwest 406 467 36,000  Level Denver Center
Sat 04:38:51 PM 41.1597 -104.7197 323° Northwest 412 474 36,000  Level Denver Center
Sat 04:39:53 PM 41.2497 -104.8047 325° Northwest 415 478 36,000  Level Denver Center
Sat 04:40:55 PM 41.3611 -104.8883 331° Northwest 414 476 36,000  Level Denver Center
Sat 04:41:57 PM 41.4569 -104.9631 330° Northwest 415 478 36,000  Level Denver Center
Sat 04:42:59 PM 41.5689 -105.0511 330° Northwest 418 481 36,000  Level Denver Center
Sat 04:44:01 PM 41.6486 -105.1153 329° Northwest 417 480 36,000  Level Denver Center
Sat 04:45:03 PM 41.7750 -105.2156 329° Northwest 413 475 36,000  Level Denver Center
Sat 04:46:05 PM 41.8689 -105.2892 330° Northwest 410 472 36,000  Level Denver Center
Sat 04:47:07 PM 41.9636 -105.3639 330° Northwest 410 472 36,000  Level Denver Center
Sat 04:48:08 PM 42.0753 -105.4522 330° Northwest 416 479 36,000  Level Denver Center
Sat 04:49:10 PM 42.1697 -105.5281 329° Northwest 413 475 36,000  Level Denver Center
Sat 04:50:12 PM 42.2814 -105.6167 330° Northwest 415 478 36,000  Level Denver Center
Sat 04:51:14 PM 42.3747 -105.6928 329° Northwest 410 472 36,000  Level Denver Center
Sat 04:52:16 PM 42.4844 -105.7814 329° Northwest 410 472 36,000  Level Denver Center
Sat 04:53:18 PM 42.5811 -105.8586 330° Northwest 418 481 36,000  Level Denver Center
Sat 04:54:20 PM 42.6747 -105.9342 329° Northwest 410 472 36,000  Level Denver Center
Sat 04:55:22 PM 42.7839 -106.0242 329° Northwest 411 473 36,000  Level Denver Center
Sat 04:56:24 PM 42.8764 -106.0997 329° Northwest 407 468 36,000  Level Denver Center
Sat 04:57:25 PM 42.9872 -106.1906 329° Northwest 413 475 36,000  Level Denver Center
Sat 04:58:27 PM 43.0817 -106.2678 329° Northwest 413 475 36,000  Level Denver Center
Sat 04:59:29 PM 43.1917 -106.3594 329° Northwest 414 476 36,000  Level Denver Center
Sat 05:00:31 PM 43.2864 -106.4369 329° Northwest 415 478 36,000  Level Denver Center
Sat 05:01:45 PM 43.3958 -106.5258 329° Northwest 412 474 36,000  Level Denver Center
Sat 05:02:47 PM 43.5047 -106.6183 328° Northwest 410 472 36,000  Level Denver Center
Sat 05:03:49 PM 43.6139 -106.7089 329° Northwest 411 473 36,000  Level Denver Center
Sat 05:04:51 PM 43.7067 -106.7889 328° Northwest 411 473 36,000  Level Denver Center
Sat 05:05:53 PM 43.8169 -106.8800 329° Northwest 412 474 36,000  Level Denver Center
Sat 05:06:55 PM 43.9108 -106.9594 329° Northwest 412 474 36,000  Level Denver Center
Sat 05:07:57 PM 44.0225 -107.0519 329° Northwest 417 480 36,000  Level Denver Center
Sat 05:08:59 PM 44.1178 -107.1336 328° Northwest 419 482 36,000  Level Denver Center
Sat 05:09:46 PM 44.1975 -107.2025 328° Northwest 419 482 36,000  Level Salt Lake Center
Sat 05:10:48 PM 44.2906 -107.2828 328° Northwest 413 475 36,000 -48 Level Salt Lake Center
Sat 05:11:50 PM 44.4003 -107.3758 329° Northwest 412 474 35,900  Descending Salt Lake Center
Sat 05:12:51 PM 44.4953 -107.4569 329° Northwest 417 480 36,000 48 Climbing Salt Lake Center
Sat 05:13:54 PM 44.6050 -107.5525 328° Northwest 421 484 36,000  Level Salt Lake Center
Sat 05:14:55 PM 44.6992 -107.6353 328° Northwest 419 482 36,000  Level Salt Lake Center
Sat 05:15:57 PM 44.8097 -107.7314 328° Northwest 418 481 36,000  Level Salt Lake Center
Sat 05:16:59 PM 44.9056 -107.8133 329° Northwest 420 483 36,000  Level Salt Lake Center
Sat 05:18:01 PM 45.0144 -107.9117 327° Northwest 418 481 36,000  Level Salt Lake Center
Sat 05:19:03 PM 45.1136 -107.9997 328° Northwest 414 476 36,000  Level Salt Lake Center
Sat 05:20:05 PM 45.2114 -108.0858 328° Northwest 418 481 36,000  Level Salt Lake Center
Sat 05:21:07 PM 45.3167 -108.1803 328° Northwest 418 481 36,000  Level Salt Lake Center
Sat 05:22:09 PM 45.4128 -108.2658 328° Northwest 413 475 36,000  Level Salt Lake Center
Sat 05:23:11 PM 45.5172 -108.3608 327° Northwest 414 476 36,000  Level Salt Lake Center
Sat 05:24:13 PM 45.6128 -108.4475 328° Northwest 411 473 36,000  Level Salt Lake Center
Sat 05:25:15 PM 45.7161 -108.5442 327° Northwest 410 472 36,000  Level Salt Lake Center
Sat 05:26:17 PM 45.8064 -108.6231 329° Northwest 416 479 36,000  Level Salt Lake Center
Sat 05:27:19 PM 45.9317 -108.7250 331° Northwest 428 493 36,000  Level Salt Lake Center
Sat 05:28:21 PM 46.0303 -108.8042 331° Northwest 414 476 36,000  Level Salt Lake Center
Sat 05:29:23 PM 46.1381 -108.8908 331° Northwest 418 481 36,000  Level Salt Lake Center
Sat 05:30:25 PM 46.2381 -108.9722 331° Northwest 416 479 36,000  Level Salt Lake Center
Sat 05:31:27 PM 46.3467 -109.0628 330° Northwest 419 482 36,000  Level Salt Lake Center
Sat 05:32:29 PM 46.4472 -109.1433 331° Northwest 416 479 36,000  Level Salt Lake Center
Sat 05:33:31 PM 46.5550 -109.2322 330° Northwest 417 480 36,000  Level Salt Lake Center
Sat 05:34:33 PM 46.6533 -109.3150 330° Northwest 415 478 36,000 -48 Level Salt Lake Center
Sat 05:35:37 PM 46.7508 -109.3994 329° Northwest 415 478 35,900  Descending Salt Lake Center
Sat 05:36:37 PM 46.8522 -109.4828 331° Northwest 417 480 36,000 33 Climbing Salt Lake Center
Sat 05:38:00 PM 46.9862 -109.5957 330° Northwest  Level FlightAware Approximate
Sat 05:38:41 PM 47.0539 -109.6542 330° Northwest 420 483 36,000  Level Salt Lake Center
Sat 05:39:43 PM 47.1756 -109.7564 330° Northwest 422 486 36,000 -48 Level Salt Lake Center
Sat 05:40:45 PM 47.2761 -109.8428 330° Northwest 421 484 35,900 -48 Descending Salt Lake Center
Sat 05:41:47 PM 47.3764 -109.9292 330° Northwest 419 482 35,900 48 Level Salt Lake Center
Sat 05:42:49 PM 47.4764 -110.0139 330° Northwest 418 481 36,000  Climbing Salt Lake Center
Sat 05:43:52 PM 47.5758 -110.1006 330° Northwest 416 479 35,900 -48 Descending Salt Lake Center
Sat 05:44:54 PM 47.6969 -110.2047 330° Northwest 421 484 35,900  Level Salt Lake Center
Sat 05:45:56 PM 47.7992 -110.2925 330° Northwest 427 491 35,900  Level Salt Lake Center
Sat 05:46:58 PM 47.8992 -110.3817 329° Northwest 423 487 35,900 48 Level Salt Lake Center
Sat 05:48:00 PM 48.0008 -110.4717 329° Northwest 425 489 36,000 49 Climbing Salt Lake Center
Sat 05:49:01 PM 48.1036 -110.5622 330° Northwest 431 496 36,000  Level Salt Lake Center
Sat 05:50:03 PM 48.2250 -110.6706 329° Northwest 428 493 36,000 -48 Level Salt Lake Center
Sat 05:51:05 PM 48.3261 -110.7611 329° Northwest 427 491 35,900 -48 Descending Salt Lake Center
Sat 05:52:07 PM 48.4267 -110.8522 329° Northwest 424 488 35,900  Level Salt Lake Center
Sat 05:53:09 PM 48.5275 -110.9425 329° Northwest 425 489 35,900  Level Salt Lake Center
Sat 05:54:11 PM 48.6294 -111.0353 329° Northwest 428 493 35,900  Level Salt Lake Center
Sat 05:55:13 PM 48.7303 -111.1272 329° Northwest 426 490 35,900  Level Salt Lake Center
Sat 05:56:15 PM 48.8514 -111.2375 329° Northwest 426 490 35,900  Level Salt Lake Center
Sat 05:57:17 PM 48.9517 -111.3308 329° Northwest 425 489 35,900 47 Level Salt Lake Center
Sat 05:58:24 PM 49.0333 -111.4667 313° West 420 483 36,000 47 Climbing Edmonton Center
Sat 05:59:24 PM 49.1500 -111.5500 335° Northwest 430 495 36,000  Level Edmonton Center
Sat 06:00:24 PM 49.2500 -111.6500 327° Northwest 430 495 36,000  Level Edmonton Center
Sat 06:01:24 PM 49.3333 -111.7333 327° Northwest 430 495 36,000  Level Edmonton Center
Sat 06:02:24 PM 49.4500 -111.8333 331° Northwest 430 495 36,000  Level Edmonton Center
Sat 06:03:24 PM 49.5500 -111.9333 327° Northwest 430 495 36,000  Level Edmonton Center
Sat 06:04:24 PM 49.6333 -112.0667 314° West 420 483 36,000  Level Edmonton Center
Sat 06:05:24 PM 49.7333 -112.1667 327° Northwest 430 495 36,000  Level Edmonton Center
Sat 06:06:24 PM 49.8167 -112.2833 318° Northwest 430 495 36,000 -350 Level Edmonton Center
Sat 06:07:24 PM 49.9167 -112.4000 323° Northwest 430 495 35,300 -1,400 Descending Edmonton Center
Sat 06:08:24 PM 50.0000 -112.5167 318° Northwest 430 495 33,200 -2,250 Descending Edmonton Center
Sat 06:09:24 PM 50.1000 -112.6500 319° Northwest 430 495 30,800 -2,250 Descending Edmonton Center
Sat 06:10:24 PM 50.1833 -112.7667 318° Northwest 420 483 28,700 -2,200 Descending Edmonton Center
Sat 06:11:24 PM 50.2833 -112.8833 323° Northwest 420 483 26,400 -2,150 Descending Edmonton Center
Sat 06:12:24 PM 50.3667 -112.9833 323° Northwest 410 472 24,400 -2,100 Descending Edmonton Center
Sat 06:13:24 PM 50.4667 -113.1000 323° Northwest 400 460 22,200 -2,100 Descending Edmonton Center
Sat 06:14:24 PM 50.5333 -113.2333 308° West 400 460 20,200 -2,000 Descending Edmonton Center
Sat 06:15:24 PM 50.6167 -113.3167 328° Northwest 380 437 18,200 -1,800 Descending Edmonton Center
Sat 06:16:24 PM 50.7000 -113.4500 315° West 370 426 16,600 -1,650 Descending Edmonton Center
Sat 06:17:24 PM 50.7667 -113.5333 322° Northwest 350 403 14,900 -1,800 Descending Edmonton Center
Sat 06:18:24 PM 50.8500 -113.6667 315° West 340 391 13,000 -1,800 Descending Edmonton Center
Sat 06:19:24 PM 50.9000 -113.7500 314° West 330 380 11,300 -1,400 Descending Edmonton Center
Sat 06:20:24 PM 50.9667 -113.8500 317° Northwest 310 357 10,200 -650 Descending Edmonton Center
Sat 06:21:24 PM 51.0500 -113.8833 346° North 300 345 10,000 -900 Descending Edmonton Center
Sat 06:22:24 PM 51.1333 -113.9000 353° North 290 334 8,400 -1,850 Descending Edmonton Center
Sat 06:23:24 PM 51.2000 -113.9000 360° North 280 322 6,300 -2,100 Descending Edmonton Center

Login

Don't have an account? Register now (free) for customized features, flight alerts, and more!